Startpagina
METAR-TAF:

METAR-TAF

Vliegvelden :

Honiara, Guadalcanal, Salomonseilanden

Honiara International Airport

breedte: 09-25S, lengte: 160-03E, hoogte: 8 m

Actueel weer

Dit bericht is 37 minuten geleden gemaakt, om 07:00 UTC
Wind 2 kt uit het zuidoosten
Temperatuur 29°C
Vochtigheid 79%
Druk 1007 hPa
Zicht 10 km of meer
Weinig wolken op 1800 ft
Weinig wolken op 1900 ft, Cumulonimbus.
Gebroken wolken op 30000 ft

METAR: AGGH 240700Z 14002KT 9999 FEW018 FEW019CB BKN300 29/25 Q1007

Tijdstip: 18:37 (07:37 UTC)

Verwachting

Dit bericht is 2 uur en het 27 minuten geleden gemaakt, om 05:10 UTC
Verwachting geldig van 24 om 06 UTC tot 25 om 06 UTC
Wind 3 kt uit variabele richting
Zicht 10 km of meer
Weinig wolken op 1700 ft
Kans 40%
tussen IN en het TE UTC
Zicht: 1007 m
Weinig wolken op 1600 ft
Weinig wolken op 1700 ft, Cumulonimbus.
onweer, (lichte

TAF: AGGH 240510Z 2406/2506 VRB03KT 9999 FEW017 PROB40 INTER 2406/2412 9999 -TS FEW016 FEW017CB T 30 28 26 24 Q 1006 1008 1009 1007

Waarnemingen en weersverwachtingen van meer dan 4000 vliegvelden (METAR en TAF).

De beschikbare stations zijn de gele en rode punten op de kaart.

Ga met uw muis naar het station om de naam te zien.

Klik dan om waarnemingen en weersverwachtingen te zien.

kaart wijzigen: klik op de groene knoppen met een zwart kruis om in te zoomen, op de groene knop met een streepje om uit te zoomen of op de groene pijlen voor aangrenzende kaarten.


METAR-TAF: